首页
METAR-TAF:

METAR-TAF

机场 :

Golden Triangle Regional Airport

哥伦布/ West Point / 斯塔克維爾, 密西西比州, 美国

纬度: 33-27N, 经度: 088-35W, 海拔: 80米

当前天气观测

该预报发布于1小时和3分钟前的16:56 UTC
风速5节,风向南转南东
温度 28°C
湿度 74%
气压 1015 hPa
能見度: 16.1公里
少量云层高于2600英尺

METAR: KGTR 041656Z 15005KT 10SM FEW026 28/23 A2996 RMK AO2 SLP148 T02830228

时间: 12:59 (17:59 UTC)

预报

该预报发布于6小时和39分钟前的11:20 UTC
预报有效从04日的 12点(UTC)到 05日的 12点(UTC)
风速3节,风向
能見度: 10公里
多云层高于800英尺
从 04日的 1500点(UTC)
风速5节,风向南转西南
能見度: 10公里
多云层高于10000英尺
从 04日的 2000点(UTC)
风速8节,风向南转西南
能見度: 10公里
多云层高于3000英尺, 积雨云.
多云层高于10000英尺
附近有雷暴
从 04日的 2100点(UTC)
风速7节,风向南转西南
能見度: 6.4公里
多云层高于2500英尺, 积雨云.
阴天层高于10000英尺
雷暴, 雨, 轻雾
从 04日的 2200点(UTC)
风速6节,风向南转西南
能見度: 10公里
多云层高于10000英尺
阴天层高于25000英尺
小雨
从 05日的 0000点(UTC)
风速4节,风向
能見度: 10公里
散云层高于10000英尺
多云层高于25000英尺

TAF: KGTR 041120Z 0412/0512 18003KT P6SM BKN008 FM041500 21005KT P6SM BKN100 FM042000 20008KT P6SM VCTS BKN030CB BKN100 FM042100 21007KT 4SM TSRA BR BKN025CB OVC100 FM042200 21006KT P6SM -RA BKN100 OVC250 FM050000 18004KT P6SM SCT100 BKN250

超过4000个机场的气象观测和天气预报(METAR&TAF报告)。

可查询的气象台以黄色和红色小点在地图上表示。

将鼠标移到小点上方,可查看气象台名称。

然后点击查看天气观测和预报。

如需切换地图:点击带黑十字的绿色按钮放大地图;点击带横线的绿色按钮缩小地图;或者点击绿色箭头查看邻近地区的地图。


METAR-TAF: